Strona główna
METAR-TAF:

METAR-TAF

Lotnisko :

Farnborough, Anglia

Szerokość geograficzna: 51-17N, Długość geograficzna: 000-46W, wysokość: 65 m

Aktualna obserwacja pogody

Raport powstał 32 minut temu, godzina 21:50 UTC
Wiatr 5 kt od południowy zachód
Temperatura 11°C
Wilgotność 82%
Ciśnienie 1000 hPa
Widzialność 10 km lub więcej
Mało chmury na wysokości 3200 ft

METAR: EGLF 042150Z AUTO 23005KT 9999 FEW032 11/08 Q1000

czas: 23:22 (22:22 UTC)

Prognoza

Raport powstał 8 godziny i 29 minut temu, godzina 13:53 UTC
Prognoza ważna od 04 godzina 15 UTC do 04 godzina 23 UTC
Wiatr 9 kt od zachodnio-północny zachód
Widzialność 10 km lub więcej
Rozproszone chmury na wysokości 3500 ft

TAF: EGLF 041353Z 0415/0423 30009KT 9999 SCT035

Obserwacja i prognoza pogody dla ponad 4000 lotnisk (raport METAR i TAF).

Dostępne stacje oznaczono żółtymi i czerwonymi punktami na mapie.

Najedź kursorem aby zobaczyć nazwę stacji.

Kliknij aby zobaczyć obserwacje i prognozy pogody.

Aby zmienić mapę: kliknij na zielony przycisk z czarnym krzyżykiem, aby powiększyć; na zielony przycisk z myślnikiem, aby pomniejszyć; na zielone strzałki, aby przejść do map sąsiednich.


METAR-TAF: